createdAt,value
2022-12-05T00:01:42.315Z,39.13
2022-12-05T00:04:12.144Z,37.77
2022-12-05T00:06:40.384Z,35.85
2022-12-05T00:09:09.340Z,42.70
2022-12-05T00:11:38.030Z,37.25
2022-12-05T00:14:05.966Z,32.67
2022-12-05T00:19:01.373Z,35.03
2022-12-05T00:21:29.934Z,35.05
2022-12-05T00:23:58.204Z,35.20
2022-12-05T00:26:24.922Z,34.60
2022-12-05T00:28:52.117Z,35.50
2022-12-05T00:31:23.318Z,34.07
2022-12-05T00:33:49.977Z,34.95
2022-12-05T00:36:22.627Z,34.15
2022-12-05T00:38:49.649Z,35.15
2022-12-05T00:41:18.482Z,35.43
2022-12-05T00:43:45.374Z,36.47
2022-12-05T00:46:14.847Z,34.67
2022-12-05T00:48:41.919Z,36.70
2022-12-05T00:51:11.595Z,35.57
2022-12-05T00:53:38.433Z,33.30
2022-12-05T00:56:07.678Z,36.90
2022-12-05T01:01:41.313Z,36.00
2022-12-05T01:04:14.801Z,34.38
2022-12-05T01:06:42.740Z,37.88
2022-12-05T01:11:41.388Z,33.13
2022-12-05T01:14:09.579Z,32.35
2022-12-05T01:16:38.578Z,32.80
2022-12-05T01:19:15.239Z,34.88
2022-12-05T01:21:42.615Z,32.28
2022-12-05T01:24:11.106Z,34.55
2022-12-05T01:26:38.401Z,38.60
2022-12-05T01:29:05.600Z,35.55
2022-12-05T01:31:35.154Z,36.15
2022-12-05T01:34:05.077Z,30.65
2022-12-05T01:36:31.922Z,30.02
2022-12-05T01:38:58.610Z,31.70
2022-12-05T01:41:34.234Z,32.10
2022-12-05T01:44:02.858Z,31.33
2022-12-05T01:46:35.120Z,32.53
2022-12-05T01:49:15.313Z,30.98
2022-12-05T01:51:46.231Z,32.38
2022-12-05T01:54:13.821Z,33.92
2022-12-05T01:56:42.267Z,32.55
2022-12-05T01:59:11.180Z,33.25
2022-12-05T02:01:38.561Z,29.50
2022-12-05T02:04:06.262Z,23.73
2022-12-05T02:06:33.460Z,33.38
2022-12-05T02:09:00.273Z,34.37
2022-12-05T02:11:30.154Z,31.45
2022-12-05T02:14:34.407Z,34.67
2022-12-05T02:17:19.653Z,34.35
2022-12-05T02:20:02.619Z,38.20
2022-12-05T02:22:58.499Z,31.27
2022-12-05T02:25:25.031Z,36.92
2022-12-05T02:28:11.933Z,33.90
2022-12-05T02:30:58.203Z,34.23
2022-12-05T02:33:34.505Z,36.67
2022-12-05T02:36:17.349Z,32.80
2022-12-05T02:38:51.589Z,32.80
2022-12-05T02:41:34.145Z,36.40
2022-12-05T02:44:09.165Z,37.28
2022-12-05T02:46:39.337Z,36.70
2022-12-05T02:49:10.327Z,31.95
2022-12-05T02:51:42.220Z,35.67
2022-12-05T02:54:13.421Z,36.55
2022-12-05T02:56:42.306Z,33.20
2022-12-05T02:59:08.886Z,34.00
2022-12-05T03:01:35.365Z,36.92
2022-12-05T03:04:04.231Z,32.20
2022-12-05T03:06:44.911Z,34.33
2022-12-05T03:09:16.662Z,39.42
2022-12-05T03:11:52.645Z,34.20
2022-12-05T03:14:38.149Z,35.35
2022-12-05T03:17:10.697Z,37.90
2022-12-05T03:19:58.084Z,37.35
2022-12-05T03:24:59.585Z,36.92
2022-12-05T03:27:39.927Z,32.80
2022-12-05T03:30:12.463Z,37.00
2022-12-05T03:32:57.639Z,32.40
2022-12-05T03:35:59.274Z,31.67
2022-12-05T03:38:33.400Z,37.80
2022-12-05T03:41:14.527Z,35.70
2022-12-05T03:43:53.678Z,35.50
2022-12-05T03:46:34.420Z,38.95
2022-12-05T03:49:07.437Z,36.03
2022-12-05T03:51:58.581Z,34.53
2022-12-05T03:54:34.700Z,33.92
2022-12-05T03:57:13.451Z,36.00
2022-12-05T04:00:06.228Z,35.90
2022-12-05T04:02:45.587Z,31.98
2022-12-05T04:05:20.730Z,37.70
2022-12-05T04:07:53.389Z,35.60
2022-12-05T04:10:24.360Z,37.53
2022-12-05T04:12:55.094Z,33.15
2022-12-05T04:15:28.604Z,32.38
2022-12-05T04:18:00.444Z,35.03
2022-12-05T04:20:55.127Z,35.50
2022-12-05T04:23:22.317Z,31.10
2022-12-05T04:25:54.034Z,32.77
2022-12-05T04:28:49.285Z,31.38
2022-12-05T04:31:26.557Z,31.67
2022-12-05T04:34:02.787Z,34.33
2022-12-05T04:36:58.091Z,31.55
2022-12-05T04:39:36.459Z,33.13
2022-12-05T04:42:07.660Z,33.55
2022-12-05T04:44:39.098Z,33.53
2022-12-05T04:47:08.728Z,35.92
2022-12-05T04:49:36.898Z,34.92
2022-12-05T04:52:08.142Z,37.83
2022-12-05T04:54:45.231Z,37.00
2022-12-05T04:57:53.377Z,27.05
2022-12-05T05:00:19.989Z,38.45
2022-12-05T05:02:54.957Z,39.95
2022-12-05T05:05:23.388Z,36.10
2022-12-05T05:07:52.760Z,38.15
2022-12-05T05:10:45.184Z,35.75
2022-12-05T05:13:11.703Z,35.90
2022-12-05T05:15:38.565Z,39.53
2022-12-05T05:18:05.115Z,38.60
2022-12-05T05:20:31.770Z,36.35
2022-12-05T05:22:58.642Z,35.20
2022-12-05T05:25:25.884Z,35.22
2022-12-05T05:27:54.896Z,33.08
2022-12-05T05:30:23.755Z,34.30
2022-12-05T05:32:50.510Z,32.97
2022-12-05T05:35:17.675Z,43.35
2022-12-05T05:37:44.413Z,47.67
2022-12-05T05:40:12.791Z,42.05
2022-12-05T05:42:47.179Z,37.67
2022-12-05T05:45:15.522Z,42.13
2022-12-05T05:47:42.382Z,37.10
2022-12-05T05:50:10.059Z,34.65
2022-12-05T05:52:37.650Z,41.47
2022-12-05T05:55:06.301Z,42.47
2022-12-05T05:57:33.013Z,44.85
2022-12-05T05:59:59.754Z,42.65
2022-12-05T06:02:26.563Z,40.03
2022-12-05T06:04:53.168Z,39.08
2022-12-05T06:07:19.727Z,40.03
2022-12-05T06:09:46.211Z,40.33
2022-12-05T06:12:12.734Z,42.35
2022-12-05T06:14:39.172Z,39.13
2022-12-05T06:17:05.640Z,39.72
2022-12-05T06:19:32.427Z,35.30
2022-12-05T06:21:59.151Z,38.80
2022-12-05T06:24:25.768Z,46.40
2022-12-05T06:26:52.273Z,35.15
2022-12-05T06:29:22.772Z,36.40
2022-12-05T06:31:52.620Z,36.08
2022-12-05T06:34:19.171Z,32.90
2022-12-05T06:36:45.663Z,36.17
2022-12-05T06:39:12.712Z,36.80
2022-12-05T06:41:39.529Z,35.27
2022-12-05T06:44:06.138Z,35.67
2022-12-05T06:49:13.721Z,37.58
2022-12-05T06:51:40.272Z,25.40
2022-12-05T06:54:06.807Z,34.10
2022-12-05T06:56:33.496Z,34.95
2022-12-05T06:59:00.121Z,41.17
2022-12-05T07:01:39.157Z,32.05
2022-12-05T07:04:15.569Z,32.22
2022-12-05T07:06:49.888Z,32.78
2022-12-05T07:09:21.990Z,31.75
2022-12-05T07:11:52.099Z,31.63
2022-12-05T07:14:45.861Z,33.15
2022-12-05T07:17:05.239Z,31.73
2022-12-05T07:19:31.819Z,34.42
2022-12-05T07:21:58.403Z,29.88
2022-12-05T07:24:25.168Z,34.92
2022-12-05T07:26:51.742Z,31.67
2022-12-05T07:33:41.748Z,33.20
2022-12-05T07:36:20.497Z,34.72
2022-12-05T07:38:47.694Z,37.55
2022-12-05T07:41:20.106Z,38.43
2022-12-05T07:43:46.867Z,35.60
2022-12-05T07:46:13.513Z,30.63
2022-12-05T07:48:40.685Z,33.67
2022-12-05T07:51:08.793Z,29.57
2022-12-05T07:53:36.279Z,33.92
2022-12-05T07:56:05.228Z,31.80
2022-12-05T07:58:33.471Z,34.38
2022-12-05T08:01:10.505Z,30.73
2022-12-05T08:06:25.722Z,37.28
2022-12-05T08:08:53.135Z,34.78
2022-12-05T08:11:32.031Z,35.28
2022-12-05T08:13:59.224Z,33.67
2022-12-05T08:16:29.198Z,37.47
2022-12-05T08:19:00.433Z,36.95
2022-12-05T08:21:27.350Z,37.50
2022-12-05T08:23:54.251Z,32.55
2022-12-05T08:26:26.682Z,36.65
2022-12-05T08:28:55.430Z,31.73
2022-12-05T08:31:25.083Z,37.53
2022-12-05T08:33:57.215Z,36.63
2022-12-05T08:36:26.284Z,31.92
2022-12-05T08:38:59.774Z,32.30
2022-12-05T08:41:29.934Z,33.25
2022-12-05T08:44:00.891Z,37.67
2022-12-05T08:46:27.404Z,41.38
2022-12-05T08:48:53.967Z,37.30
2022-12-05T08:51:20.487Z,28.35
2022-12-05T08:53:49.907Z,33.30
2022-12-05T08:56:18.918Z,34.10
2022-12-05T08:58:48.720Z,32.42
2022-12-05T09:04:01.724Z,32.78
2022-12-05T09:06:29.914Z,36.47
2022-12-05T09:09:01.328Z,27.67
2022-12-05T09:11:30.136Z,25.80
2022-12-05T09:13:58.592Z,28.35
2022-12-05T09:16:36.469Z,32.55
2022-12-05T09:19:05.761Z,28.98
2022-12-05T09:21:33.034Z,26.30
2022-12-05T09:24:01.089Z,27.52
2022-12-05T09:26:28.762Z,27.58
2022-12-05T09:28:55.274Z,28.45
2022-12-05T09:31:25.375Z,26.60
2022-12-05T09:33:52.816Z,27.10
2022-12-05T09:36:23.162Z,33.08
2022-12-05T09:38:50.994Z,29.27
2022-12-05T09:41:54.805Z,33.72
2022-12-05T09:45:02.775Z,29.20
2022-12-05T09:48:20.391Z,26.02
2022-12-05T09:50:50.307Z,30.95
2022-12-05T09:53:37.226Z,31.17
2022-12-05T09:56:09.578Z,30.00
2022-12-05T09:58:47.076Z,30.08
2022-12-05T10:01:32.716Z,32.42
2022-12-05T10:04:04.092Z,28.27
2022-12-05T10:07:01.589Z,25.58
2022-12-05T10:12:16.659Z,24.80
2022-12-05T10:15:05.040Z,28.55
2022-12-05T10:17:36.946Z,28.85
2022-12-05T10:20:13.722Z,28.00
2022-12-05T10:22:52.935Z,26.30
2022-12-05T10:25:21.552Z,27.48
2022-12-05T10:28:00.174Z,27.02
2022-12-05T10:30:36.429Z,29.60
2022-12-05T10:33:21.159Z,28.80
2022-12-05T10:35:53.716Z,34.45
2022-12-05T10:38:24.187Z,33.30
2022-12-05T10:40:54.434Z,32.20
2022-12-05T10:43:26.991Z,42.88
2022-12-05T10:45:54.187Z,31.77
2022-12-05T10:48:21.899Z,32.53
2022-12-05T10:50:54.940Z,29.77
2022-12-05T10:53:27.491Z,30.67
2022-12-05T10:56:28.632Z,35.25
2022-12-05T10:58:55.067Z,33.20
2022-12-05T11:01:22.998Z,33.00
2022-12-05T11:03:57.053Z,33.08
2022-12-05T11:06:32.154Z,32.67
2022-12-05T11:09:31.072Z,39.00
2022-12-05T11:12:01.544Z,40.20
2022-12-05T11:14:29.770Z,38.75
2022-12-05T11:16:59.069Z,36.13
2022-12-05T11:19:30.571Z,32.67
2022-12-05T11:21:57.428Z,37.42
2022-12-05T11:24:33.752Z,33.72
2022-12-05T11:27:20.979Z,41.95
2022-12-05T11:30:19.060Z,35.13
2022-12-05T11:32:45.878Z,33.85
2022-12-05T11:35:12.322Z,34.38
2022-12-05T11:38:01.965Z,35.03
2022-12-05T11:40:57.052Z,34.25
2022-12-05T11:43:44.794Z,38.28
2022-12-05T11:46:33.997Z,37.97
2022-12-05T11:49:18.955Z,40.88
2022-12-05T11:52:11.897Z,43.10
2022-12-05T11:55:08.412Z,40.45
2022-12-05T11:58:07.609Z,46.08
2022-12-05T12:00:51.174Z,50.17
2022-12-05T12:03:37.710Z,50.08
2022-12-05T12:06:31.846Z,63.80
2022-12-05T12:09:26.116Z,43.85
2022-12-05T12:12:02.920Z,42.33
2022-12-05T12:14:56.544Z,36.47
2022-12-05T12:17:38.453Z,31.48
2022-12-05T12:20:11.170Z,29.02
2022-12-05T12:22:48.112Z,28.15
2022-12-05T12:25:28.491Z,28.00
2022-12-05T12:28:36.564Z,27.52
2022-12-05T12:31:24.625Z,30.33
2022-12-05T12:33:55.258Z,30.27
2022-12-05T12:36:46.177Z,24.23
2022-12-05T12:39:32.618Z,26.05
2022-12-05T12:42:43.825Z,24.48
2022-12-05T12:45:22.627Z,28.75
2022-12-05T12:48:01.122Z,29.13
2022-12-05T12:50:32.011Z,34.63
2022-12-05T12:53:41.732Z,23.98
2022-12-05T12:56:23.398Z,29.13
2022-12-05T12:59:09.583Z,44.42
2022-12-05T13:01:41.849Z,38.42
2022-12-05T13:04:19.869Z,32.85
2022-12-05T13:09:57.995Z,25.58
2022-12-05T13:12:32.763Z,26.58
2022-12-05T13:15:08.361Z,28.80
2022-12-05T13:17:35.364Z,21.23
2022-12-05T13:20:02.168Z,16.07
2022-12-05T13:22:29.487Z,22.33
2022-12-05T13:24:56.953Z,22.58
2022-12-05T13:27:27.599Z,26.42
2022-12-05T13:29:56.663Z,26.58
2022-12-05T13:32:36.264Z,27.65
2022-12-05T13:35:38.887Z,26.52
2022-12-05T13:38:24.123Z,24.10
2022-12-05T13:41:12.242Z,23.33
2022-12-05T13:43:50.962Z,24.65
2022-12-05T13:46:29.760Z,25.00
2022-12-05T13:49:07.013Z,22.58
2022-12-05T13:51:38.096Z,20.55
2022-12-05T13:54:19.598Z,20.27
2022-12-05T13:56:48.414Z,24.80
2022-12-05T13:59:54.216Z,22.58
2022-12-05T14:02:45.679Z,24.52
2022-12-05T14:05:21.236Z,23.52
2022-12-05T14:07:50.396Z,25.92
2022-12-05T14:10:22.550Z,32.03
2022-12-05T14:12:56.999Z,29.25
2022-12-05T14:15:38.692Z,31.02
2022-12-05T14:18:17.076Z,32.13
2022-12-05T14:21:02.277Z,31.15
2022-12-05T14:23:56.194Z,29.58
2022-12-05T14:26:49.169Z,30.35
2022-12-05T14:29:37.866Z,28.92
2022-12-05T14:32:28.467Z,31.27
2022-12-05T14:35:05.304Z,31.60
2022-12-05T14:37:53.744Z,27.75
2022-12-05T14:40:39.282Z,28.23
2022-12-05T14:43:32.971Z,30.92
2022-12-05T14:46:06.437Z,29.63
2022-12-05T14:48:48.487Z,31.15
2022-12-05T14:51:30.129Z,34.53
2022-12-05T14:54:04.635Z,32.47
2022-12-05T14:56:34.907Z,25.98
2022-12-05T14:59:07.975Z,26.00
2022-12-05T15:01:44.043Z,25.05
2022-12-05T15:04:22.396Z,23.33
2022-12-05T15:06:53.229Z,23.75
2022-12-05T15:09:43.135Z,25.25
2022-12-05T15:12:16.754Z,23.95
2022-12-05T15:15:01.313Z,28.10
2022-12-05T15:17:38.902Z,30.25
2022-12-05T15:20:24.545Z,22.17
2022-12-05T15:22:54.240Z,26.85
2022-12-05T15:28:19.720Z,27.88
2022-12-05T15:30:55.756Z,26.25
2022-12-05T15:33:25.197Z,30.25
2022-12-05T15:35:55.304Z,24.80
2022-12-05T15:38:34.111Z,24.88
2022-12-05T15:41:01.225Z,30.30
2022-12-05T15:43:33.208Z,30.37
2022-12-05T15:46:28.341Z,29.73
2022-12-05T15:48:57.295Z,34.40
2022-12-05T15:51:31.397Z,34.47
2022-12-05T15:54:13.300Z,33.67
2022-12-05T15:56:48.840Z,47.13
2022-12-05T15:59:21.156Z,33.13
2022-12-05T16:01:53.238Z,27.80
2022-12-05T16:04:29.210Z,30.13
2022-12-05T16:07:01.243Z,28.58
2022-12-05T16:09:32.236Z,32.97
2022-12-05T16:15:01.458Z,31.35
2022-12-05T16:17:30.954Z,25.73
2022-12-05T16:20:16.437Z,28.50
2022-12-05T16:22:52.525Z,33.85
2022-12-05T16:25:24.716Z,32.85
2022-12-05T16:28:03.757Z,31.90
2022-12-05T16:30:31.741Z,33.10
2022-12-05T16:35:34.483Z,28.02
2022-12-05T16:38:14.771Z,34.78
2022-12-05T16:40:52.456Z,37.70
2022-12-05T16:43:21.259Z,37.25
2022-12-05T16:45:49.595Z,33.72
2022-12-05T16:48:20.368Z,38.55
2022-12-05T16:50:47.653Z,37.60
2022-12-05T16:53:19.220Z,32.95
2022-12-05T16:55:45.998Z,36.25
2022-12-05T16:58:19.742Z,38.47
2022-12-05T17:00:48.348Z,38.20
2022-12-05T17:03:33.326Z,36.67
2022-12-05T17:06:00.985Z,39.13
2022-12-05T17:08:27.617Z,35.80
2022-12-05T17:10:54.309Z,35.30
2022-12-05T17:13:21.507Z,37.83
2022-12-05T17:15:48.216Z,39.17
2022-12-05T17:18:20.627Z,38.97
2022-12-05T17:20:54.385Z,33.05
2022-12-05T17:23:21.040Z,32.28
2022-12-05T17:25:53.606Z,34.88
2022-12-05T17:28:20.832Z,34.28
2022-12-05T17:30:47.676Z,33.65
2022-12-05T17:33:16.900Z,33.45
2022-12-05T17:35:43.746Z,34.05
2022-12-05T17:38:10.899Z,29.48
2022-12-05T17:40:38.693Z,21.67
2022-12-05T17:43:05.593Z,28.50
2022-12-05T17:45:33.161Z,32.63
2022-12-05T17:47:59.987Z,30.55
2022-12-05T17:50:27.038Z,31.15
2022-12-05T17:52:59.651Z,29.13
2022-12-05T17:55:29.302Z,29.48
2022-12-05T17:57:56.004Z,30.00
2022-12-05T18:00:24.555Z,29.42
2022-12-05T18:02:52.619Z,32.13
2022-12-05T18:05:19.474Z,28.67
2022-12-05T18:07:46.496Z,29.98
2022-12-05T18:10:17.841Z,21.63
2022-12-05T18:12:44.797Z,34.28
2022-12-05T18:15:13.579Z,32.78
2022-12-05T18:17:40.316Z,32.72
2022-12-05T18:20:10.572Z,33.83
2022-12-05T18:22:37.231Z,30.45
2022-12-05T18:25:05.374Z,27.10
2022-12-05T18:27:33.767Z,31.10
2022-12-05T18:30:01.071Z,27.08
2022-12-05T18:32:27.850Z,28.05
2022-12-05T18:34:54.350Z,26.10
2022-12-05T18:37:22.313Z,24.73
2022-12-05T18:42:15.650Z,25.70
2022-12-05T18:44:42.407Z,22.63
2022-12-05T18:47:12.955Z,28.73
2022-12-05T18:49:46.317Z,29.65
2022-12-05T18:58:40.952Z,30.70
2022-12-05T19:03:53.604Z,24.65
2022-12-05T19:09:09.210Z,23.23
2022-12-05T19:11:47.306Z,22.50
2022-12-05T19:14:15.812Z,21.60
2022-12-05T19:19:23.085Z,20.73
2022-12-05T19:21:49.621Z,15.90
2022-12-05T19:24:19.426Z,20.88
2022-12-05T19:26:47.797Z,20.25
2022-12-05T19:29:18.538Z,19.60
2022-12-05T19:31:55.672Z,16.00
2022-12-05T19:34:24.770Z,17.02
2022-12-05T19:37:00.489Z,17.00
2022-12-05T19:39:27.459Z,18.52
2022-12-05T19:42:00.119Z,17.90
2022-12-05T19:44:29.670Z,18.40
2022-12-05T19:46:58.720Z,17.27
2022-12-05T19:49:25.239Z,19.85
2022-12-05T19:51:58.424Z,18.88
2022-12-05T19:54:28.929Z,19.02
2022-12-05T19:59:41.672Z,19.60
2022-12-05T20:02:22.139Z,19.95
2022-12-05T20:04:50.895Z,21.35
2022-12-05T20:10:01.922Z,19.63
2022-12-05T20:15:12.489Z,20.30
2022-12-05T20:20:22.576Z,20.42
2022-12-05T20:25:41.952Z,20.67
2022-12-05T20:28:12.511Z,23.17
2022-12-05T20:33:29.690Z,22.33
2022-12-05T20:36:04.054Z,23.30
2022-12-05T20:38:36.524Z,20.88
2022-12-05T20:41:18.023Z,22.27
2022-12-05T20:43:45.949Z,21.13
2022-12-05T20:48:54.521Z,22.95
2022-12-05T20:51:28.990Z,20.63
2022-12-05T20:53:57.837Z,22.70
2022-12-05T21:04:23.835Z,24.92
2022-12-05T21:09:32.930Z,24.88
2022-12-05T21:14:41.863Z,22.35
2022-12-05T21:17:17.572Z,25.42
2022-12-05T21:19:52.554Z,22.00
2022-12-05T21:22:21.860Z,28.73
2022-12-05T21:27:33.630Z,25.90
2022-12-05T21:30:09.149Z,23.50
2022-12-05T21:32:36.789Z,25.33
2022-12-05T21:37:46.890Z,23.25
2022-12-05T21:42:54.459Z,24.77
2022-12-05T21:45:21.528Z,23.23
2022-12-05T21:47:55.929Z,18.43
2022-12-05T21:50:22.566Z,22.80
2022-12-05T21:52:52.004Z,24.88
2022-12-05T21:55:27.686Z,21.60
2022-12-05T21:57:55.729Z,22.23
2022-12-05T22:03:10.584Z,21.42
2022-12-05T22:05:42.068Z,24.08
2022-12-05T22:08:09.855Z,23.60
2022-12-05T22:10:36.967Z,19.88
2022-12-05T22:15:48.929Z,22.92
2022-12-05T22:18:18.485Z,20.80
2022-12-05T22:20:52.685Z,23.30
2022-12-05T22:23:27.073Z,19.60
2022-12-05T22:28:55.286Z,24.50
2022-12-05T22:31:29.191Z,25.60
2022-12-05T22:33:57.059Z,23.58
2022-12-05T22:39:07.494Z,22.20
2022-12-05T22:41:33.971Z,21.27
2022-12-05T22:44:08.985Z,24.23
2022-12-05T22:46:36.216Z,23.75
2022-12-05T22:51:50.948Z,21.67
2022-12-05T22:57:00.574Z,25.05
2022-12-05T23:02:07.760Z,23.05
2022-12-05T23:07:19.926Z,27.05
2022-12-05T23:12:33.167Z,25.83
2022-12-05T23:17:41.476Z,24.60
2022-12-05T23:26:04.606Z,24.48
2022-12-05T23:28:34.281Z,25.35
2022-12-05T23:31:05.837Z,22.80
2022-12-05T23:33:40.938Z,25.85
2022-12-05T23:36:09.151Z,29.02
2022-12-05T23:41:26.305Z,29.00
2022-12-05T23:44:04.255Z,27.90
2022-12-05T23:46:34.197Z,26.73
2022-12-05T23:51:49.660Z,33.40
2022-12-05T23:54:21.764Z,28.08
2022-12-05T23:56:50.747Z,26.38
